TAF Text Data
IDs:
Format:
Raw Decoded Include METAR

Data at: 1832 UTC 14 Nov 2019

METAR for:KTOB (Dodge Center Arpt, MN, US)
Text:KTOB 141816Z AUTO 25009KT 10SM SCT016 M04/M09 A3022 RMK AO2
Temperature: -4.0°C ( 25°F)
Dewpoint: -9.0°C ( 16°F) [RH = 68%]
Pressure (altimeter):30.22 inches Hg (1023.5 mb)
Winds:from the WSW (250 degrees) at 10 MPH (9 knots; 4.6 m/s)
Visibility:10 or more sm (16+ km)
Ceiling:at least 12,000 feet AGL
Clouds: scattered clouds at 1600 feet AGL
QC Flag:automated observation with no human augmentation

TAF for:KTOB (Dodge Center Arpt, MN, US)
Text:No data found